sensor_id;sensor_type;location;lat;lon;timestamp;P1;P2;P0
82667;PMS5003;72691;51.374;-0.176;2024-01-25T00:01:41;11;10;
82667;PMS5003;72691;51.374;-0.176;2024-01-25T00:04:06;7;6;
82667;PMS5003;72691;51.374;-0.176;2024-01-25T00:06:32;8;8;
82667;PMS5003;72691;51.374;-0.176;2024-01-25T00:08:57;9;8;
82667;PMS5003;72691;51.374;-0.176;2024-01-25T00:11:23;10;9;
82667;PMS5003;72691;51.374;-0.176;2024-01-25T00:13:48;9;8;
82667;PMS5003;72691;51.374;-0.176;2024-01-25T00:16:13;10;10;
82667;PMS5003;72691;51.374;-0.176;2024-01-25T00:18:39;7;5;
82667;PMS5003;72691;51.374;-0.176;2024-01-25T00:21:04;11;9;
82667;PMS5003;72691;51.374;-0.176;2024-01-25T00:23:30;10;9;
82667;PMS5003;72691;51.374;-0.176;2024-01-25T00:25:55;10;10;
82667;PMS5003;72691;51.374;-0.176;2024-01-25T00:28:20;9;9;
82667;PMS5003;72691;51.374;-0.176;2024-01-25T00:30:45;9;8;
82667;PMS5003;72691;51.374;-0.176;2024-01-25T00:33:11;8;8;
82667;PMS5003;72691;51.374;-0.176;2024-01-25T00:35:36;9;8;
82667;PMS5003;72691;51.374;-0.176;2024-01-25T00:38:02;10;10;
82667;PMS5003;72691;51.374;-0.176;2024-01-25T00:40:28;8;6;
82667;PMS5003;72691;51.374;-0.176;2024-01-25T00:42:53;8;8;
82667;PMS5003;72691;51.374;-0.176;2024-01-25T00:45:19;9;9;
82667;PMS5003;72691;51.374;-0.176;2024-01-25T00:47:44;8;8;
82667;PMS5003;72691;51.374;-0.176;2024-01-25T00:50:10;7;4;
82667;PMS5003;72691;51.374;-0.176;2024-01-25T00:52:35;13;10;
82667;PMS5003;72691;51.374;-0.176;2024-01-25T00:55:00;7;5;
82667;PMS5003;72691;51.374;-0.176;2024-01-25T00:57:26;10;7;
82667;PMS5003;72691;51.374;-0.176;2024-01-25T00:59:51;8;7;
82667;PMS5003;72691;51.374;-0.176;2024-01-25T01:02:17;7;5;
82667;PMS5003;72691;51.374;-0.176;2024-01-25T01:04:42;4;4;
82667;PMS5003;72691;51.374;-0.176;2024-01-25T01:07:07;5;5;
82667;PMS5003;72691;51.374;-0.176;2024-01-25T01:09:32;8;8;
82667;PMS5003;72691;51.374;-0.176;2024-01-25T01:11:58;7;7;
82667;PMS5003;72691;51.374;-0.176;2024-01-25T01:14:23;7;7;
82667;PMS5003;72691;51.374;-0.176;2024-01-25T01:16:48;10;8;
82667;PMS5003;72691;51.374;-0.176;2024-01-25T01:19:13;4;4;
82667;PMS5003;72691;51.374;-0.176;2024-01-25T01:21:39;5;5;
82667;PMS5003;72691;51.374;-0.176;2024-01-25T01:24:04;5;4;
82667;PMS5003;72691;51.374;-0.176;2024-01-25T01:26:30;5;5;
82667;PMS5003;72691;51.374;-0.176;2024-01-25T01:28:56;5;4;
82667;PMS5003;72691;51.374;-0.176;2024-01-25T01:31:21;3;3;
82667;PMS5003;72691;51.374;-0.176;2024-01-25T01:33:47;9;9;
82667;PMS5003;72691;51.374;-0.176;2024-01-25T01:36:13;7;6;
82667;PMS5003;72691;51.374;-0.176;2024-01-25T01:38:38;8;6;
82667;PMS5003;72691;51.374;-0.176;2024-01-25T01:41:03;11;10;
82667;PMS5003;72691;51.374;-0.176;2024-01-25T01:43:29;4;4;
82667;PMS5003;72691;51.374;-0.176;2024-01-25T01:45:54;9;7;
82667;PMS5003;72691;51.374;-0.176;2024-01-25T01:48:19;8;5;
82667;PMS5003;72691;51.374;-0.176;2024-01-25T01:50:45;7;6;
82667;PMS5003;72691;51.374;-0.176;2024-01-25T01:53:10;7;7;
82667;PMS5003;72691;51.374;-0.176;2024-01-25T01:55:35;6;6;
82667;PMS5003;72691;51.374;-0.176;2024-01-25T01:58:00;6;5;
82667;PMS5003;72691;51.374;-0.176;2024-01-25T02:00:26;5;4;
82667;PMS5003;72691;51.374;-0.176;2024-01-25T02:02:51;6;5;
82667;PMS5003;72691;51.374;-0.176;2024-01-25T02:05:17;9;7;
82667;PMS5003;72691;51.374;-0.176;2024-01-25T02:07:42;6;5;
82667;PMS5003;72691;51.374;-0.176;2024-01-25T02:10:08;6;5;
82667;PMS5003;72691;51.374;-0.176;2024-01-25T02:12:33;4;4;
82667;PMS5003;72691;51.374;-0.176;2024-01-25T02:14:59;5;4;
82667;PMS5003;72691;51.374;-0.176;2024-01-25T02:17:24;6;6;
82667;PMS5003;72691;51.374;-0.176;2024-01-25T02:19:49;8;6;
82667;PMS5003;72691;51.374;-0.176;2024-01-25T02:22:15;6;6;
82667;PMS5003;72691;51.374;-0.176;2024-01-25T02:24:40;6;6;
82667;PMS5003;72691;51.374;-0.176;2024-01-25T02:27:05;9;8;
82667;PMS5003;72691;51.374;-0.176;2024-01-25T02:29:31;8;5;
82667;PMS5003;72691;51.374;-0.176;2024-01-25T02:31:56;8;6;
82667;PMS5003;72691;51.374;-0.176;2024-01-25T02:34:22;5;5;
82667;PMS5003;72691;51.374;-0.176;2024-01-25T02:36:47;7;7;
82667;PMS5003;72691;51.374;-0.176;2024-01-25T02:39:13;4;4;
82667;PMS5003;72691;51.374;-0.176;2024-01-25T02:41:39;12;9;
82667;PMS5003;72691;51.374;-0.176;2024-01-25T02:44:04;7;7;
82667;PMS5003;72691;51.374;-0.176;2024-01-25T02:46:29;5;4;
82667;PMS5003;72691;51.374;-0.176;2024-01-25T02:48:54;5;5;
82667;PMS5003;72691;51.374;-0.176;2024-01-25T02:51:20;7;7;
82667;PMS5003;72691;51.374;-0.176;2024-01-25T02:53:46;8;7;
82667;PMS5003;72691;51.374;-0.176;2024-01-25T02:56:10;8;7;
82667;PMS5003;72691;51.374;-0.176;2024-01-25T02:58:36;7;7;
82667;PMS5003;72691;51.374;-0.176;2024-01-25T03:01:01;7;6;
82667;PMS5003;72691;51.374;-0.176;2024-01-25T03:03:27;9;8;
82667;PMS5003;72691;51.374;-0.176;2024-01-25T03:05:52;8;6;
82667;PMS5003;72691;51.374;-0.176;2024-01-25T03:08:17;8;7;
82667;PMS5003;72691;51.374;-0.176;2024-01-25T03:10:43;7;7;
82667;PMS5003;72691;51.374;-0.176;2024-01-25T03:13:08;9;8;
82667;PMS5003;72691;51.374;-0.176;2024-01-25T03:15:33;10;9;
82667;PMS5003;72691;51.374;-0.176;2024-01-25T03:17:59;9;9;
82667;PMS5003;72691;51.374;-0.176;2024-01-25T03:20:24;9;8;
82667;PMS5003;72691;51.374;-0.176;2024-01-25T03:22:50;9;8;
82667;PMS5003;72691;51.374;-0.176;2024-01-25T03:25:15;8;8;
82667;PMS5003;72691;51.374;-0.176;2024-01-25T03:27:40;9;9;
82667;PMS5003;72691;51.374;-0.176;2024-01-25T03:30:06;8;8;
82667;PMS5003;72691;51.374;-0.176;2024-01-25T03:32:32;9;8;
82667;PMS5003;72691;51.374;-0.176;2024-01-25T03:34:57;8;8;
82667;PMS5003;72691;51.374;-0.176;2024-01-25T03:37:22;8;7;
82667;PMS5003;72691;51.374;-0.176;2024-01-25T03:39:48;10;9;
82667;PMS5003;72691;51.374;-0.176;2024-01-25T03:42:13;11;11;
82667;PMS5003;72691;51.374;-0.176;2024-01-25T03:44:38;9;8;
82667;PMS5003;72691;51.374;-0.176;2024-01-25T03:47:04;9;8;
82667;PMS5003;72691;51.374;-0.176;2024-01-25T03:49:29;9;7;
82667;PMS5003;72691;51.374;-0.176;2024-01-25T03:51:54;12;11;
82667;PMS5003;72691;51.374;-0.176;2024-01-25T03:54:19;8;8;
82667;PMS5003;72691;51.374;-0.176;2024-01-25T03:56:44;11;11;
82667;PMS5003;72691;51.374;-0.176;2024-01-25T03:59:11;7;7;
82667;PMS5003;72691;51.374;-0.176;2024-01-25T04:01:40;12;12;
82667;PMS5003;72691;51.374;-0.176;2024-01-25T04:04:01;9;8;
82667;PMS5003;72691;51.374;-0.176;2024-01-25T04:06:26;12;11;
82667;PMS5003;72691;51.374;-0.176;2024-01-25T04:08:51;12;9;
82667;PMS5003;72691;51.374;-0.176;2024-01-25T04:11:18;9;8;
82667;PMS5003;72691;51.374;-0.176;2024-01-25T04:13:42;9;8;
82667;PMS5003;72691;51.374;-0.176;2024-01-25T04:16:08;11;9;
82667;PMS5003;72691;51.374;-0.176;2024-01-25T04:18:33;8;8;
82667;PMS5003;72691;51.374;-0.176;2024-01-25T04:20:59;13;9;
82667;PMS5003;72691;51.374;-0.176;2024-01-25T04:23:24;11;11;
82667;PMS5003;72691;51.374;-0.176;2024-01-25T04:25:49;13;12;
82667;PMS5003;72691;51.374;-0.176;2024-01-25T04:28:15;13;12;
82667;PMS5003;72691;51.374;-0.176;2024-01-25T04:30:40;11;9;
82667;PMS5003;72691;51.374;-0.176;2024-01-25T04:33:06;10;9;
82667;PMS5003;72691;51.374;-0.176;2024-01-25T04:35:31;14;13;
82667;PMS5003;72691;51.374;-0.176;2024-01-25T04:37:56;9;7;
82667;PMS5003;72691;51.374;-0.176;2024-01-25T04:40:22;12;9;
82667;PMS5003;72691;51.374;-0.176;2024-01-25T04:42:47;9;9;
82667;PMS5003;72691;51.374;-0.176;2024-01-25T04:45:13;9;8;
82667;PMS5003;72691;51.374;-0.176;2024-01-25T04:47:38;10;9;
82667;PMS5003;72691;51.374;-0.176;2024-01-25T04:50:04;11;9;
82667;PMS5003;72691;51.374;-0.176;2024-01-25T04:52:29;10;9;
82667;PMS5003;72691;51.374;-0.176;2024-01-25T04:54:54;12;10;
82667;PMS5003;72691;51.374;-0.176;2024-01-25T04:57:20;13;10;
82667;PMS5003;72691;51.374;-0.176;2024-01-25T04:59:45;12;11;
82667;PMS5003;72691;51.374;-0.176;2024-01-25T05:02:10;9;8;
82667;PMS5003;72691;51.374;-0.176;2024-01-25T05:04:36;9;9;
82667;PMS5003;72691;51.374;-0.176;2024-01-25T05:07:01;9;8;
82667;PMS5003;72691;51.374;-0.176;2024-01-25T05:09:27;11;9;
82667;PMS5003;72691;51.374;-0.176;2024-01-25T05:11:52;18;15;
82667;PMS5003;72691;51.374;-0.176;2024-01-25T05:14:17;13;10;
82667;PMS5003;72691;51.374;-0.176;2024-01-25T05:16:42;9;9;
82667;PMS5003;72691;51.374;-0.176;2024-01-25T05:19:08;12;12;
82667;PMS5003;72691;51.374;-0.176;2024-01-25T05:21:33;8;6;
82667;PMS5003;72691;51.374;-0.176;2024-01-25T05:23:58;9;8;
82667;PMS5003;72691;51.374;-0.176;2024-01-25T05:26:24;9;8;
82667;PMS5003;72691;51.374;-0.176;2024-01-25T05:28:49;11;11;
82667;PMS5003;72691;51.374;-0.176;2024-01-25T05:31:14;10;9;
82667;PMS5003;72691;51.374;-0.176;2024-01-25T05:33:40;13;13;
82667;PMS5003;72691;51.374;-0.176;2024-01-25T05:36:06;12;11;
82667;PMS5003;72691;51.374;-0.176;2024-01-25T05:38:31;11;9;
82667;PMS5003;72691;51.374;-0.176;2024-01-25T05:40:56;12;11;
82667;PMS5003;72691;51.374;-0.176;2024-01-25T05:43:21;13;11;
82667;PMS5003;72691;51.374;-0.176;2024-01-25T05:45:47;13;11;
82667;PMS5003;72691;51.374;-0.176;2024-01-25T05:48:12;14;11;
82667;PMS5003;72691;51.374;-0.176;2024-01-25T05:50:38;9;8;
82667;PMS5003;72691;51.374;-0.176;2024-01-25T05:53:03;9;8;
82667;PMS5003;72691;51.374;-0.176;2024-01-25T05:55:29;12;10;
82667;PMS5003;72691;51.374;-0.176;2024-01-25T05:57:54;9;8;
82667;PMS5003;72691;51.374;-0.176;2024-01-25T06:00:20;13;12;
82667;PMS5003;72691;51.374;-0.176;2024-01-25T06:02:45;10;9;
82667;PMS5003;72691;51.374;-0.176;2024-01-25T06:05:11;10;9;
82667;PMS5003;72691;51.374;-0.176;2024-01-25T06:07:36;11;9;
82667;PMS5003;72691;51.374;-0.176;2024-01-25T06:10:01;12;11;
82667;PMS5003;72691;51.374;-0.176;2024-01-25T06:12:28;14;14;
82667;PMS5003;72691;51.374;-0.176;2024-01-25T06:14:52;16;14;
82667;PMS5003;72691;51.374;-0.176;2024-01-25T06:17:17;11;10;
82667;PMS5003;72691;51.374;-0.176;2024-01-25T06:19:43;15;15;
82667;PMS5003;72691;51.374;-0.176;2024-01-25T06:22:08;13;13;
82667;PMS5003;72691;51.374;-0.176;2024-01-25T06:24:34;11;10;
82667;PMS5003;72691;51.374;-0.176;2024-01-25T06:26:59;14;13;
82667;PMS5003;72691;51.374;-0.176;2024-01-25T06:29:25;10;10;
82667;PMS5003;72691;51.374;-0.176;2024-01-25T06:31:50;13;10;
82667;PMS5003;72691;51.374;-0.176;2024-01-25T06:34:16;16;15;
82667;PMS5003;72691;51.374;-0.176;2024-01-25T06:36:41;10;10;
82667;PMS5003;72691;51.374;-0.176;2024-01-25T06:39:07;13;11;
82667;PMS5003;72691;51.374;-0.176;2024-01-25T06:41:32;10;10;
82667;PMS5003;72691;51.374;-0.176;2024-01-25T06:43:58;12;10;
82667;PMS5003;72691;51.374;-0.176;2024-01-25T06:46:22;8;7;
82667;PMS5003;72691;51.374;-0.176;2024-01-25T06:48:50;8;8;
82667;PMS5003;72691;51.374;-0.176;2024-01-25T06:51:13;8;7;
82667;PMS5003;72691;51.374;-0.176;2024-01-25T06:53:38;9;8;
82667;PMS5003;72691;51.374;-0.176;2024-01-25T06:56:04;11;10;
82667;PMS5003;72691;51.374;-0.176;2024-01-25T06:58:29;10;9;
82667;PMS5003;72691;51.374;-0.176;2024-01-25T07:00:55;11;10;
82667;PMS5003;72691;51.374;-0.176;2024-01-25T07:03:20;8;8;
82667;PMS5003;72691;51.374;-0.176;2024-01-25T07:05:45;9;9;
82667;PMS5003;72691;51.374;-0.176;2024-01-25T07:08:11;9;8;
82667;PMS5003;72691;51.374;-0.176;2024-01-25T07:10:36;10;10;
82667;PMS5003;72691;51.374;-0.176;2024-01-25T07:13:03;13;13;
82667;PMS5003;72691;51.374;-0.176;2024-01-25T07:15:27;9;7;
82667;PMS5003;72691;51.374;-0.176;2024-01-25T07:17:52;13;13;
82667;PMS5003;72691;51.374;-0.176;2024-01-25T07:20:18;14;14;
82667;PMS5003;72691;51.374;-0.176;2024-01-25T07:22:43;13;11;
82667;PMS5003;72691;51.374;-0.176;2024-01-25T07:25:09;13;11;
82667;PMS5003;72691;51.374;-0.176;2024-01-25T07:27:34;13;11;
82667;PMS5003;72691;51.374;-0.176;2024-01-25T07:29:59;21;20;
82667;PMS5003;72691;51.374;-0.176;2024-01-25T07:32:25;18;16;
82667;PMS5003;72691;51.374;-0.176;2024-01-25T07:34:51;17;16;
82667;PMS5003;72691;51.374;-0.176;2024-01-25T07:37:17;15;14;
82667;PMS5003;72691;51.374;-0.176;2024-01-25T07:39:42;15;14;
82667;PMS5003;72691;51.374;-0.176;2024-01-25T07:42:07;13;11;
82667;PMS5003;72691;51.374;-0.176;2024-01-25T07:44:33;17;16;
82667;PMS5003;72691;51.374;-0.176;2024-01-25T07:46:58;15;15;
82667;PMS5003;72691;51.374;-0.176;2024-01-25T07:49:24;13;13;
82667;PMS5003;72691;51.374;-0.176;2024-01-25T07:51:49;16;16;
82667;PMS5003;72691;51.374;-0.176;2024-01-25T07:54:15;15;13;
82667;PMS5003;72691;51.374;-0.176;2024-01-25T07:56:40;14;12;
82667;PMS5003;72691;51.374;-0.176;2024-01-25T07:59:06;14;14;
82667;PMS5003;72691;51.374;-0.176;2024-01-25T08:01:32;15;14;
82667;PMS5003;72691;51.374;-0.176;2024-01-25T08:03:57;13;13;
82667;PMS5003;72691;51.374;-0.176;2024-01-25T08:06:22;10;10;
82667;PMS5003;72691;51.374;-0.176;2024-01-25T08:08:48;10;10;
82667;PMS5003;72691;51.374;-0.176;2024-01-25T08:11:14;9;9;
82667;PMS5003;72691;51.374;-0.176;2024-01-25T08:13:42;7;7;
82667;PMS5003;72691;51.374;-0.176;2024-01-25T08:16:09;7;7;
82667;PMS5003;72691;51.374;-0.176;2024-01-25T08:18:30;8;7;
82667;PMS5003;72691;51.374;-0.176;2024-01-25T08:20:55;8;7;
82667;PMS5003;72691;51.374;-0.176;2024-01-25T08:23:21;7;6;
82667;PMS5003;72691;51.374;-0.176;2024-01-25T08:25:46;7;7;
82667;PMS5003;72691;51.374;-0.176;2024-01-25T08:28:12;7;5;
82667;PMS5003;72691;51.374;-0.176;2024-01-25T08:30:37;10;10;
82667;PMS5003;72691;51.374;-0.176;2024-01-25T08:33:03;10;9;
82667;PMS5003;72691;51.374;-0.176;2024-01-25T08:35:29;9;8;
82667;PMS5003;72691;51.374;-0.176;2024-01-25T08:37:53;8;8;
82667;PMS5003;72691;51.374;-0.176;2024-01-25T08:40:19;10;9;
82667;PMS5003;72691;51.374;-0.176;2024-01-25T08:42:44;13;11;
82667;PMS5003;72691;51.374;-0.176;2024-01-25T08:45:11;9;9;
82667;PMS5003;72691;51.374;-0.176;2024-01-25T08:47:35;9;8;
82667;PMS5003;72691;51.374;-0.176;2024-01-25T08:50:01;10;9;
82667;PMS5003;72691;51.374;-0.176;2024-01-25T08:52:26;14;12;
82667;PMS5003;72691;51.374;-0.176;2024-01-25T08:54:52;13;11;
82667;PMS5003;72691;51.374;-0.176;2024-01-25T08:57:18;11;10;
82667;PMS5003;72691;51.374;-0.176;2024-01-25T08:59:43;10;9;
82667;PMS5003;72691;51.374;-0.176;2024-01-25T09:02:08;10;9;
82667;PMS5003;72691;51.374;-0.176;2024-01-25T09:04:34;10;10;
82667;PMS5003;72691;51.374;-0.176;2024-01-25T09:06:59;10;8;
82667;PMS5003;72691;51.374;-0.176;2024-01-25T09:09:25;9;8;
82667;PMS5003;72691;51.374;-0.176;2024-01-25T09:11:50;11;10;
82667;PMS5003;72691;51.374;-0.176;2024-01-25T09:14:15;8;7;
82667;PMS5003;72691;51.374;-0.176;2024-01-25T09:16:41;7;5;
82667;PMS5003;72691;51.374;-0.176;2024-01-25T09:19:06;9;9;
82667;PMS5003;72691;51.374;-0.176;2024-01-25T09:21:32;8;7;
82667;PMS5003;72691;51.374;-0.176;2024-01-25T09:23:57;8;8;
82667;PMS5003;72691;51.374;-0.176;2024-01-25T09:26:22;7;5;
82667;PMS5003;72691;51.374;-0.176;2024-01-25T09:28:47;9;7;
82667;PMS5003;72691;51.374;-0.176;2024-01-25T09:31:13;10;10;
82667;PMS5003;72691;51.374;-0.176;2024-01-25T09:33:38;10;9;
82667;PMS5003;72691;51.374;-0.176;2024-01-25T09:36:05;11;9;
82667;PMS5003;72691;51.374;-0.176;2024-01-25T09:38:29;5;5;
82667;PMS5003;72691;51.374;-0.176;2024-01-25T09:40:55;6;5;
82667;PMS5003;72691;51.374;-0.176;2024-01-25T09:43:20;8;5;
82667;PMS5003;72691;51.374;-0.176;2024-01-25T09:45:46;5;5;
82667;PMS5003;72691;51.374;-0.176;2024-01-25T09:48:11;9;9;
82667;PMS5003;72691;51.374;-0.176;2024-01-25T09:50:36;5;4;
82667;PMS5003;72691;51.374;-0.176;2024-01-25T09:53:02;4;4;
82667;PMS5003;72691;51.374;-0.176;2024-01-25T09:55:27;6;5;
82667;PMS5003;72691;51.374;-0.176;2024-01-25T09:57:53;6;6;
82667;PMS5003;72691;51.374;-0.176;2024-01-25T10:00:18;3;3;
82667;PMS5003;72691;51.374;-0.176;2024-01-25T10:02:43;5;5;
82667;PMS5003;72691;51.374;-0.176;2024-01-25T10:05:08;4;4;
82667;PMS5003;72691;51.374;-0.176;2024-01-25T10:07:35;4;4;
82667;PMS5003;72691;51.374;-0.176;2024-01-25T10:09:59;5;5;
82667;PMS5003;72691;51.374;-0.176;2024-01-25T10:12:25;5;5;
82667;PMS5003;72691;51.374;-0.176;2024-01-25T10:14:50;4;4;
82667;PMS5003;72691;51.374;-0.176;2024-01-25T10:17:16;4;4;
82667;PMS5003;72691;51.374;-0.176;2024-01-25T10:19:42;7;6;
82667;PMS5003;72691;51.374;-0.176;2024-01-25T10:22:06;3;2;
82667;PMS5003;72691;51.374;-0.176;2024-01-25T10:24:32;4;4;
82667;PMS5003;72691;51.374;-0.176;2024-01-25T10:26:57;4;4;
82667;PMS5003;72691;51.374;-0.176;2024-01-25T10:29:25;4;4;
82667;PMS5003;72691;51.374;-0.176;2024-01-25T10:31:48;3;3;
82667;PMS5003;72691;51.374;-0.176;2024-01-25T10:34:14;4;4;
82667;PMS5003;72691;51.374;-0.176;2024-01-25T10:36:39;4;4;
82667;PMS5003;72691;51.374;-0.176;2024-01-25T10:39:05;5;4;
82667;PMS5003;72691;51.374;-0.176;2024-01-25T10:41:30;6;5;
82667;PMS5003;72691;51.374;-0.176;2024-01-25T10:43:55;11;11;
82667;PMS5003;72691;51.374;-0.176;2024-01-25T10:46:21;9;7;
82667;PMS5003;72691;51.374;-0.176;2024-01-25T10:48:47;7;7;
82667;PMS5003;72691;51.374;-0.176;2024-01-25T10:51:12;7;7;
82667;PMS5003;72691;51.374;-0.176;2024-01-25T10:53:38;7;6;
82667;PMS5003;72691;51.374;-0.176;2024-01-25T10:56:03;6;6;
82667;PMS5003;72691;51.374;-0.176;2024-01-25T10:58:30;9;6;
82667;PMS5003;72691;51.374;-0.176;2024-01-25T11:00:54;6;6;
82667;PMS5003;72691;51.374;-0.176;2024-01-25T11:03:19;7;6;
82667;PMS5003;72691;51.374;-0.176;2024-01-25T11:05:45;11;11;
82667;PMS5003;72691;51.374;-0.176;2024-01-25T11:10:35;9;9;
82667;PMS5003;72691;51.374;-0.176;2024-01-25T11:13:01;12;12;
82667;PMS5003;72691;51.374;-0.176;2024-01-25T11:15:29;10;10;
82667;PMS5003;72691;51.374;-0.176;2024-01-25T11:17:52;10;10;
82667;PMS5003;72691;51.374;-0.176;2024-01-25T11:20:19;10;10;
82667;PMS5003;72691;51.374;-0.176;2024-01-25T11:22:44;10;8;
82667;PMS5003;72691;51.374;-0.176;2024-01-25T11:25:11;14;14;
82667;PMS5003;72691;51.374;-0.176;2024-01-25T11:27:33;7;6;
82667;PMS5003;72691;51.374;-0.176;2024-01-25T11:29:58;11;10;
82667;PMS5003;72691;51.374;-0.176;2024-01-25T11:32:24;7;7;
82667;PMS5003;72691;51.374;-0.176;2024-01-25T11:37:15;11;11;
82667;PMS5003;72691;51.374;-0.176;2024-01-25T11:39:40;6;6;
82667;PMS5003;72691;51.374;-0.176;2024-01-25T11:42:06;11;11;
82667;PMS5003;72691;51.374;-0.176;2024-01-25T11:44:31;7;7;
82667;PMS5003;72691;51.374;-0.176;2024-01-25T11:46:56;13;11;
82667;PMS5003;72691;51.374;-0.176;2024-01-25T11:49:23;12;11;
82667;PMS5003;72691;51.374;-0.176;2024-01-25T11:51:46;7;7;
82667;PMS5003;72691;51.374;-0.176;2024-01-25T11:54:12;9;9;
82667;PMS5003;72691;51.374;-0.176;2024-01-25T11:56:38;11;11;
82667;PMS5003;72691;51.374;-0.176;2024-01-25T11:59:03;10;8;
82667;PMS5003;72691;51.374;-0.176;2024-01-25T12:01:28;11;10;
82667;PMS5003;72691;51.374;-0.176;2024-01-25T12:03:53;10;9;
82667;PMS5003;72691;51.374;-0.176;2024-01-25T12:06:18;9;8;
82667;PMS5003;72691;51.374;-0.176;2024-01-25T12:08:44;11;11;
82667;PMS5003;72691;51.374;-0.176;2024-01-25T12:11:09;12;11;
82667;PMS5003;72691;51.374;-0.176;2024-01-25T12:13:34;11;11;
82667;PMS5003;72691;51.374;-0.176;2024-01-25T12:16:00;15;15;
82667;PMS5003;72691;51.374;-0.176;2024-01-25T12:18:26;9;9;
82667;PMS5003;72691;51.374;-0.176;2024-01-25T12:20:51;8;8;
82667;PMS5003;72691;51.374;-0.176;2024-01-25T12:23:16;12;10;
82667;PMS5003;72691;51.374;-0.176;2024-01-25T12:25:42;9;8;
82667;PMS5003;72691;51.374;-0.176;2024-01-25T12:28:07;7;7;
82667;PMS5003;72691;51.374;-0.176;2024-01-25T12:30:32;13;12;
82667;PMS5003;72691;51.374;-0.176;2024-01-25T12:32:58;10;10;
82667;PMS5003;72691;51.374;-0.176;2024-01-25T12:35:23;9;9;
82667;PMS5003;72691;51.374;-0.176;2024-01-25T12:37:49;10;9;
82667;PMS5003;72691;51.374;-0.176;2024-01-25T12:40:14;10;10;
82667;PMS5003;72691;51.374;-0.176;2024-01-25T12:42:39;14;11;
82667;PMS5003;72691;51.374;-0.176;2024-01-25T12:45:05;9;8;
82667;PMS5003;72691;51.374;-0.176;2024-01-25T12:47:30;11;11;
82667;PMS5003;72691;51.374;-0.176;2024-01-25T12:49:55;7;7;
82667;PMS5003;72691;51.374;-0.176;2024-01-25T12:52:21;7;7;
82667;PMS5003;72691;51.374;-0.176;2024-01-25T12:54:46;8;8;
82667;PMS5003;72691;51.374;-0.176;2024-01-25T12:57:11;8;8;
82667;PMS5003;72691;51.374;-0.176;2024-01-25T12:59:37;8;8;
82667;PMS5003;72691;51.374;-0.176;2024-01-25T13:02:02;8;7;
82667;PMS5003;72691;51.374;-0.176;2024-01-25T13:04:28;10;10;
82667;PMS5003;72691;51.374;-0.176;2024-01-25T13:06:54;11;10;
82667;PMS5003;72691;51.374;-0.176;2024-01-25T13:09:19;10;8;
82667;PMS5003;72691;51.374;-0.176;2024-01-25T13:11:46;11;11;
82667;PMS5003;72691;51.374;-0.176;2024-01-25T13:14:10;10;10;
82667;PMS5003;72691;51.374;-0.176;2024-01-25T13:16:35;14;13;
82667;PMS5003;72691;51.374;-0.176;2024-01-25T13:19:00;11;11;
82667;PMS5003;72691;51.374;-0.176;2024-01-25T13:21:26;8;8;
82667;PMS5003;72691;51.374;-0.176;2024-01-25T13:23:51;12;12;
82667;PMS5003;72691;51.374;-0.176;2024-01-25T13:26:16;8;8;
82667;PMS5003;72691;51.374;-0.176;2024-01-25T13:28:42;7;6;
82667;PMS5003;72691;51.374;-0.176;2024-01-25T13:31:07;10;9;
82667;PMS5003;72691;51.374;-0.176;2024-01-25T13:33:33;8;7;
82667;PMS5003;72691;51.374;-0.176;2024-01-25T13:35:58;5;5;
82667;PMS5003;72691;51.374;-0.176;2024-01-25T13:38:23;7;6;
82667;PMS5003;72691;51.374;-0.176;2024-01-25T13:40:50;7;5;
82667;PMS5003;72691;51.374;-0.176;2024-01-25T13:43:14;6;6;
82667;PMS5003;72691;51.374;-0.176;2024-01-25T13:45:40;6;6;
82667;PMS5003;72691;51.374;-0.176;2024-01-25T13:48:06;9;8;
82667;PMS5003;72691;51.374;-0.176;2024-01-25T13:50:31;7;5;
82667;PMS5003;72691;51.374;-0.176;2024-01-25T13:52:56;9;8;
82667;PMS5003;72691;51.374;-0.176;2024-01-25T13:55:21;5;5;
82667;PMS5003;72691;51.374;-0.176;2024-01-25T13:57:47;5;4;
82667;PMS5003;72691;51.374;-0.176;2024-01-25T14:00:13;6;6;
82667;PMS5003;72691;51.374;-0.176;2024-01-25T14:02:39;6;6;
82667;PMS5003;72691;51.374;-0.176;2024-01-25T14:05:03;7;6;
82667;PMS5003;72691;51.374;-0.176;2024-01-25T14:07:28;4;4;
82667;PMS5003;72691;51.374;-0.176;2024-01-25T14:09:54;5;5;
82667;PMS5003;72691;51.374;-0.176;2024-01-25T14:12:19;6;6;
82667;PMS5003;72691;51.374;-0.176;2024-01-25T14:14:45;5;5;
82667;PMS5003;72691;51.374;-0.176;2024-01-25T14:17:11;5;5;
82667;PMS5003;72691;51.374;-0.176;2024-01-25T14:19:35;5;5;
82667;PMS5003;72691;51.374;-0.176;2024-01-25T14:22:01;6;6;
82667;PMS5003;72691;51.374;-0.176;2024-01-25T14:24:26;5;5;
82667;PMS5003;72691;51.374;-0.176;2024-01-25T14:26:52;6;6;
82667;PMS5003;72691;51.374;-0.176;2024-01-25T14:29:18;5;4;
82667;PMS5003;72691;51.374;-0.176;2024-01-25T14:31:43;6;5;
82667;PMS5003;72691;51.374;-0.176;2024-01-25T14:34:08;7;6;
82667;PMS5003;72691;51.374;-0.176;2024-01-25T14:36:33;6;6;
82667;PMS5003;72691;51.374;-0.176;2024-01-25T14:38:59;8;8;
82667;PMS5003;72691;51.374;-0.176;2024-01-25T14:41:24;6;6;
82667;PMS5003;72691;51.374;-0.176;2024-01-25T14:43:50;7;6;
82667;PMS5003;72691;51.374;-0.176;2024-01-25T14:46:15;11;9;
82667;PMS5003;72691;51.374;-0.176;2024-01-25T14:48:40;5;5;
82667;PMS5003;72691;51.374;-0.176;2024-01-25T14:51:06;6;6;
82667;PMS5003;72691;51.374;-0.176;2024-01-25T14:53:31;4;4;
82667;PMS5003;72691;51.374;-0.176;2024-01-25T14:55:57;5;5;
82667;PMS5003;72691;51.374;-0.176;2024-01-25T14:58:22;6;6;
82667;PMS5003;72691;51.374;-0.176;2024-01-25T15:00:47;6;5;
82667;PMS5003;72691;51.374;-0.176;2024-01-25T15:03:13;5;5;
82667;PMS5003;72691;51.374;-0.176;2024-01-25T15:05:38;5;5;
82667;PMS5003;72691;51.374;-0.176;2024-01-25T15:08:04;5;4;
82667;PMS5003;72691;51.374;-0.176;2024-01-25T15:10:30;5;4;
82667;PMS5003;72691;51.374;-0.176;2024-01-25T15:12:54;4;4;
82667;PMS5003;72691;51.374;-0.176;2024-01-25T15:15:20;5;5;
82667;PMS5003;72691;51.374;-0.176;2024-01-25T15:17:45;4;4;
82667;PMS5003;72691;51.374;-0.176;2024-01-25T15:20:11;5;5;
82667;PMS5003;72691;51.374;-0.176;2024-01-25T15:22:36;6;5;
82667;PMS5003;72691;51.374;-0.176;2024-01-25T15:25:01;6;5;
82667;PMS5003;72691;51.374;-0.176;2024-01-25T15:27:27;6;6;
82667;PMS5003;72691;51.374;-0.176;2024-01-25T15:29:52;3;3;
82667;PMS5003;72691;51.374;-0.176;2024-01-25T15:32:18;6;6;
82667;PMS5003;72691;51.374;-0.176;2024-01-25T15:34:43;6;6;
82667;PMS5003;72691;51.374;-0.176;2024-01-25T15:37:08;4;4;
82667;PMS5003;72691;51.374;-0.176;2024-01-25T15:39:34;3;3;
82667;PMS5003;72691;51.374;-0.176;2024-01-25T15:41:59;5;5;
82667;PMS5003;72691;51.374;-0.176;2024-01-25T15:44:25;5;5;
82667;PMS5003;72691;51.374;-0.176;2024-01-25T15:46:50;3;3;
82667;PMS5003;72691;51.374;-0.176;2024-01-25T15:49:16;5;5;
82667;PMS5003;72691;51.374;-0.176;2024-01-25T15:51:41;4;4;
82667;PMS5003;72691;51.374;-0.176;2024-01-25T15:54:07;5;5;
82667;PMS5003;72691;51.374;-0.176;2024-01-25T15:56:32;3;3;
82667;PMS5003;72691;51.374;-0.176;2024-01-25T15:58:57;3;3;
82667;PMS5003;72691;51.374;-0.176;2024-01-25T16:01:22;5;4;
82667;PMS5003;72691;51.374;-0.176;2024-01-25T16:03:48;4;4;
82667;PMS5003;72691;51.374;-0.176;2024-01-25T16:06:13;3;3;
82667;PMS5003;72691;51.374;-0.176;2024-01-25T16:08:39;3;3;
82667;PMS5003;72691;51.374;-0.176;2024-01-25T16:11:04;3;3;
82667;PMS5003;72691;51.374;-0.176;2024-01-25T16:13:30;3;3;
82667;PMS5003;72691;51.374;-0.176;2024-01-25T16:15:55;4;4;